BBC Livorno — V2QJ2 — position and weather

sailwx.info

Track history (hours):
 
Tides and Currents Weather Stations Pressure Air Temp Water Temp Dewpoint Dewpoint Depression Visibility Wind Speed Wind Dir Waves Ship Positions

BBC Livorno

Last reported at 2017-Dec-11 15:01 UTC. Time now 2017-Dec-11 15:14 UTC.
Position N 50°32' W 000°05'.

Length 130 m; draft 5.7 m.

Type: Cargo ship. MMSI: 305775000.

Date/timePositionNaut miles runAvg speedWind from/ knotsBaromVisibWave heightAir tempDewpointWater temp
2017-Dec-11 15:01N 50°32' W 000°05'4 8.7
2017-Dec-11 14:30N 50°33' E 000°01'5 9.2
2017-Dec-11 14:01N 50°34' E 000°08'4 8.6
2017-Dec-11 13:31N 50°35' E 000°15'4 7.7
2017-Dec-11 13:01N 50°36' E 000°21'4 8.2
2017-Dec-11 12:31N 50°37' E 000°27'4 8.5
2017-Dec-11 12:00N 50°38' E 000°34'510.7
2017-Dec-11 11:31N 50°41' E 000°40'611.2
2017-Dec-11 11:01N 50°44' E 000°48'611.5
2017-Dec-11 10:30N 50°48' E 000°55'612.3
2017-Dec-11 10:01N 50°51' E 001°03'612.2
2017-Dec-11 09:30N 50°55' E 001°10'611.8
2017-Dec-11 09:00N 50°59' E 001°17'611.4
2017-Dec-11 08:31N 51°03' E 001°25'510.9
2017-Dec-11 08:00N 51°06' E 001°31'510.1
2017-Dec-11 07:30N 51°09' E 001°37'510.1
2017-Dec-11 07:01N 51°12' E 001°44'5 9.7
2017-Dec-11 06:31N 51°17' E 001°48'5 9.9
2017-Dec-11 06:01N 51°21' E 001°52'510.3
2017-Dec-11 05:31N 51°25' E 001°56'510.8
2017-Dec-11 05:00N 51°30' E 002°01'611.4
2017-Dec-11 04:30N 51°34' E 002°07'611.8
2017-Dec-11 04:00N 51°39' E 002°13'8710.9
2017-Dec-10 20:05N 52°46' E 003°42'3 9.6
2017-Dec-10 19:45N 52°49' E 003°45'2 9.7
2017-Dec-10 19:30N 52°50' E 003°47'5 9.9
2017-Dec-10 19:00N 52°54' E 003°53'510.2
2017-Dec-10 18:30N 52°57' E 003°59'610.6
2017-Dec-10 17:59N 53°01' E 004°07'511.1
2017-Dec-10 17:30N 53°04' E 004°14'611.6
2017-Dec-10 17:00N 53°08' E 004°21'611.0
2017-Dec-10 16:29N 53°13' E 004°26'176 9.8
2017-Dec-09 22:28N 55°49' E 006°46'5 9.5
2017-Dec-09 21:59N 55°53' E 006°51'5 9.6
2017-Dec-09 21:29N 55°57' E 006°55'5 9.7
2017-Dec-09 21:00N 56°01' E 006°59'153 7.6
2017-Dec-09 00:46N 57°47' E 010°22'2 6.9
2017-Dec-09 00:30N 57°47' E 010°25'4 6.5
2017-Dec-08 23:52N 57°49' E 010°32'2 6.4
2017-Dec-08 23:29N 57°49' E 010°37'3 6.5
2017-Dec-08 23:01N 57°50' E 010°42'3 6.9
2017-Dec-08 22:31N 57°50' E 010°49'3 6.7
2017-Dec-08 22:00N 57°50' E 010°55'3 6.1
2017-Dec-08 21:30N 57°50' E 011°01'3 6.4
2017-Dec-08 21:01N 57°50' E 011°07'3 6.2
2017-Dec-08 20:31N 57°50' E 011°13'3 6.2
2017-Dec-08 20:01N 57°50' E 011°19'3 6.4
2017-Dec-08 19:31N 57°51' E 011°24'3 6.0
2017-Dec-08 19:01N 57°52' E 011°29'4 7.1
2017-Dec-08 18:31N 57°55' E 011°34'4 7.5
2017-Dec-08 18:01N 57°56' E 011°41'5 9.1
2017-Dec-08 17:31N 57°60' E 011°46'5 9.5
2017-Dec-08 17:01N 58°04' E 011°47'5 9.3
2017-Dec-08 16:31N 58°09' E 011°50'510.0
2017-Dec-08 16:00N 58°14' E 011°51'510.6
2017-Dec-08 15:31N 58°19' E 011°48'  
2017-Dec-04 09:38N 58°20' E 011°52'0 0.0
2017-Dec-04 09:02N 58°20' E 011°52'0 0.0
2017-Dec-04 08:38N 58°20' E 011°52'0 0.0
2017-Dec-04 08:26N 58°20' E 011°52'0 0.0
2017-Dec-04 07:53N 58°20' E 011°52'0 0.0
2017-Dec-04 07:26N 58°20' E 011°52'0 0.0
2017-Dec-04 06:59N 58°20' E 011°52'0 0.0
2017-Dec-04 06:11N 58°20' E 011°52'0 0.0
2017-Dec-04 05:50N 58°20' E 011°52'0 0.0
2017-Dec-04 03:26N 58°20' E 011°52'0 0.0
2017-Dec-04 02:59N 58°20' E 011°52'0 0.0
2017-Dec-04 02:26N 58°20' E 011°52'0 0.0
2017-Dec-04 01:47N 58°20' E 011°52'0 0.0
2017-Dec-04 01:29N 58°20' E 011°52'0 0.0
2017-Dec-04 00:50N 58°20' E 011°52'0 0.0
2017-Dec-04 00:29N 58°20' E 011°52'0 0.0
2017-Dec-03 23:56N 58°20' E 011°52'0 0.0
2017-Dec-03 23:14N 58°20' E 011°52'0 0.0
2017-Dec-03 22:56N 58°20' E 011°52'0 0.0
2017-Dec-03 22:26N 58°20' E 011°52'0 0.0
2017-Dec-03 21:53N 58°20' E 011°52'0 0.0
2017-Dec-03 21:20N 58°20' E 011°52'0 0.0
2017-Dec-03 20:57N 58°20' E 011°52'2 2.2
2017-Dec-03 20:01N 58°19' E 011°49'0 9.9
2017-Dec-03 20:00N 58°19' E 011°49'5 9.2
2017-Dec-03 19:28N 58°14' E 011°51'4 9.9
2017-Dec-03 19:00N 58°10' E 011°51'5 9.7
2017-Dec-03 18:30N 58°05' E 011°48'5 9.9
2017-Dec-03 17:59N 58°00' E 011°46'510.3
2017-Dec-03 17:30N 57°56' E 011°41'5 9.7
2017-Dec-03 17:00N 57°54' E 011°33'5 9.5
2017-Dec-03 16:30N 57°51' E 011°26'4 8.2
2017-Dec-03 16:00N 57°50' E 011°18'5 9.5
2017-Dec-03 15:30N 57°50' E 011°09'4 8.9
2017-Dec-03 15:00N 57°50' E 011°01'5 9.6
2017-Dec-03 14:30N 57°50' E 010°52'510.0
2017-Dec-03 14:00N 57°49' E 010°43'5 9.9
2017-Dec-03 13:30N 57°49' E 010°34'5 9.6
2017-Dec-03 13:00N 57°47' E 010°25'149 9.8
2017-Dec-02 21:53N 56°02' E 007°11'410.2
2017-Dec-02 21:29N 55°59' E 007°08'510.3
2017-Dec-02 21:00N 55°55' E 007°03'510.2
2017-Dec-02 20:29N 55°50' E 006°58'510.1
2017-Dec-02 20:00N 55°46' E 006°53'510.0
2017-Dec-02 19:29N 55°41' E 006°49'510.1
2017-Dec-02 19:00N 55°37' E 006°45'510.2
2017-Dec-02 18:30N 55°33' E 006°40'510.5
2017-Dec-02 17:59N 55°28' E 006°35'510.6
2017-Dec-02 17:30N 55°24' E 006°30'510.6
2017-Dec-02 16:59N 55°19' E 006°25'510.5
2017-Dec-02 16:30N 55°15' E 006°21'510.5
2017-Dec-02 16:00N 55°10' E 006°15'510.4
2017-Dec-02 15:29N 55°06' E 006°11'510.4
2017-Dec-02 14:59N 55°01' E 006°06'510.3
2017-Dec-02 14:30N 54°57' E 006°01'510.3
2017-Dec-02 13:59N 54°53' E 005°57'510.3
2017-Dec-02 13:29N 54°48' E 005°52'510.4
2017-Dec-02 13:00N 54°45' E 005°46'510.5
2017-Dec-02 12:30N 54°40' E 005°41'510.6
2017-Dec-02 11:59N 54°35' E 005°36'510.6
2017-Dec-02 11:29N 54°31' E 005°32'510.5
2017-Dec-02 11:00N 54°26' E 005°27'510.4
2017-Dec-02 10:30N 54°22' E 005°23'510.4
2017-Dec-02 09:59N 54°17' E 005°18'710.5
2017-Dec-02 09:18N 54°11' E 005°12'3710.6
2017-Dec-02 05:48N 53°36' E 004°51'311.0
2017-Dec-02 05:30N 53°33' E 004°49'511.0
2017-Dec-02 05:00N 53°28' E 004°45'611.6
2017-Dec-02 04:31N 53°23' E 004°42'912.1
2017-Dec-02 03:43N 53°14' E 004°35'312.2
2017-Dec-02 03:28N 53°11' E 004°32'612.1
2017-Dec-02 03:00N 53°07' E 004°27'611.8
2017-Dec-02 02:30N 53°02' E 004°22'611.9
2017-Dec-02 02:00N 52°56' E 004°18'611.8
2017-Dec-02 01:31N 52°51' E 004°15'611.6
2017-Dec-02 01:00N 52°46' E 004°09'611.5
2017-Dec-02 00:30N 52°41' E 004°04'611.4
2017-Dec-02 00:00N 52°36' E 003°59'510.8
2017-Dec-01 23:30N 52°32' E 003°55'510.5
2017-Dec-01 23:01N 52°26' E 003°54'510.0
2017-Dec-01 22:30N 52°21' E 003°52'5 9.7
2017-Dec-01 22:00N 52°17' E 003°53'5 9.6
2017-Dec-01 21:30N 52°12' E 003°54'5 9.2
2017-Dec-01 21:00N 52°07' E 003°55'4 8.6
2017-Dec-01 20:30N 52°04' E 003°51'3 6.5
2017-Dec-01 20:01N 52°02' E 003°56'510.7
2017-Dec-01 19:30N 51°59' E 004°04'611.8
2017-Dec-01 19:00N 51°56' E 004°12'611.3
2017-Dec-01 18:30N 51°53' E 004°19'4 8.0
2017-Dec-01 18:00N 51°51' E 004°24'5 9.2
2017-Dec-01 17:30N 51°50' E 004°32'4 8.1
2017-Dec-01 17:00N 51°48' E 004°37'1 1.4
2017-Dec-01 16:30N 51°48' E 004°38'0 0.0
2017-Dec-01 16:00N 51°48' E 004°38'0 0.0
2017-Dec-01 15:30N 51°48' E 004°38'  
Track history (hours):
 
Tides and Currents Weather Stations Pressure Air Temp Water Temp Dewpoint Dewpoint Depression Visibility Wind Speed Wind Dir Waves Ship Positions

BBC Livorno

Last reported at 2017-Dec-11 15:01 UTC. Time now 2017-Dec-11 15:14 UTC.
Position N 50°32' W 000°05'.

Length 130 m; draft 5.7 m.

Type: Cargo ship. MMSI: 305775000.

Date/timePositionNaut miles runAvg speedWind from/ knotsBaromVisibWave heightAir tempDewpointWater temp
2017-Dec-11 15:01N 50°32' W 000°05'4 8.7
2017-Dec-11 14:30N 50°33' E 000°01'5 9.2
2017-Dec-11 14:01N 50°34' E 000°08'4 8.6
2017-Dec-11 13:31N 50°35' E 000°15'4 7.7
2017-Dec-11 13:01N 50°36' E 000°21'4 8.2
2017-Dec-11 12:31N 50°37' E 000°27'4 8.5
2017-Dec-11 12:00N 50°38' E 000°34'510.7
2017-Dec-11 11:31N 50°41' E 000°40'611.2
2017-Dec-11 11:01N 50°44' E 000°48'611.5
2017-Dec-11 10:30N 50°48' E 000°55'612.3
2017-Dec-11 10:01N 50°51' E 001°03'612.2
2017-Dec-11 09:30N 50°55' E 001°10'611.8
2017-Dec-11 09:00N 50°59' E 001°17'611.4
2017-Dec-11 08:31N 51°03' E 001°25'510.9
2017-Dec-11 08:00N 51°06' E 001°31'510.1
2017-Dec-11 07:30N 51°09' E 001°37'510.1
2017-Dec-11 07:01N 51°12' E 001°44'5 9.7
2017-Dec-11 06:31N 51°17' E 001°48'5 9.9
2017-Dec-11 06:01N 51°21' E 001°52'510.3
2017-Dec-11 05:31N 51°25' E 001°56'510.8
2017-Dec-11 05:00N 51°30' E 002°01'611.4
2017-Dec-11 04:30N 51°34' E 002°07'611.8
2017-Dec-11 04:00N 51°39' E 002°13'8710.9
2017-Dec-10 20:05N 52°46' E 003°42'3 9.6
2017-Dec-10 19:45N 52°49' E 003°45'2 9.7
2017-Dec-10 19:30N 52°50' E 003°47'5 9.9
2017-Dec-10 19:00N 52°54' E 003°53'510.2
2017-Dec-10 18:30N 52°57' E 003°59'610.6
2017-Dec-10 17:59N 53°01' E 004°07'511.1
2017-Dec-10 17:30N 53°04' E 004°14'611.6
2017-Dec-10 17:00N 53°08' E 004°21'611.0
2017-Dec-10 16:29N 53°13' E 004°26'176 9.8
2017-Dec-09 22:28N 55°49' E 006°46'5 9.5
2017-Dec-09 21:59N 55°53' E 006°51'5 9.6
2017-Dec-09 21:29N 55°57' E 006°55'5 9.7
2017-Dec-09 21:00N 56°01' E 006°59'153 7.6
2017-Dec-09 00:46N 57°47' E 010°22'2 6.9
2017-Dec-09 00:30N 57°47' E 010°25'4 6.5
2017-Dec-08 23:52N 57°49' E 010°32'2 6.4
2017-Dec-08 23:29N 57°49' E 010°37'3 6.5
2017-Dec-08 23:01N 57°50' E 010°42'3 6.9
2017-Dec-08 22:31N 57°50' E 010°49'3 6.7
2017-Dec-08 22:00N 57°50' E 010°55'3 6.1
2017-Dec-08 21:30N 57°50' E 011°01'3 6.4
2017-Dec-08 21:01N 57°50' E 011°07'3 6.2
2017-Dec-08 20:31N 57°50' E 011°13'3 6.2
2017-Dec-08 20:01N 57°50' E 011°19'3 6.4
2017-Dec-08 19:31N 57°51' E 011°24'3 6.0
2017-Dec-08 19:01N 57°52' E 011°29'4 7.1
2017-Dec-08 18:31N 57°55' E 011°34'4 7.5
2017-Dec-08 18:01N 57°56' E 011°41'5 9.1
2017-Dec-08 17:31N 57°60' E 011°46'5 9.5
2017-Dec-08 17:01N 58°04' E 011°47'5 9.3
2017-Dec-08 16:31N 58°09' E 011°50'510.0
2017-Dec-08 16:00N 58°14' E 011°51'510.6
2017-Dec-08 15:31N 58°19' E 011°48'  
2017-Dec-04 09:38N 58°20' E 011°52'0 0.0
2017-Dec-04 09:02N 58°20' E 011°52'0 0.0
2017-Dec-04 08:38N 58°20' E 011°52'0 0.0
2017-Dec-04 08:26N 58°20' E 011°52'0 0.0
2017-Dec-04 07:53N 58°20' E 011°52'0 0.0
2017-Dec-04 07:26N 58°20' E 011°52'0 0.0
2017-Dec-04 06:59N 58°20' E 011°52'0 0.0
2017-Dec-04 06:11N 58°20' E 011°52'0 0.0
2017-Dec-04 05:50N 58°20' E 011°52'0 0.0
2017-Dec-04 03:26N 58°20' E 011°52'0 0.0
2017-Dec-04 02:59N 58°20' E 011°52'0 0.0
2017-Dec-04 02:26N 58°20' E 011°52'0 0.0
2017-Dec-04 01:47N 58°20' E 011°52'0 0.0
2017-Dec-04 01:29N 58°20' E 011°52'0 0.0
2017-Dec-04 00:50N 58°20' E 011°52'0 0.0
2017-Dec-04 00:29N 58°20' E 011°52'0 0.0
2017-Dec-03 23:56N 58°20' E 011°52'0 0.0
2017-Dec-03 23:14N 58°20' E 011°52'0 0.0
2017-Dec-03 22:56N 58°20' E 011°52'0 0.0
2017-Dec-03 22:26N 58°20' E 011°52'0 0.0
2017-Dec-03 21:53N 58°20' E 011°52'0 0.0
2017-Dec-03 21:20N 58°20' E 011°52'0 0.0
2017-Dec-03 20:57N 58°20' E 011°52'2 2.2
2017-Dec-03 20:01N 58°19' E 011°49'0 9.9
2017-Dec-03 20:00N 58°19' E 011°49'5 9.2
2017-Dec-03 19:28N 58°14' E 011°51'4 9.9
2017-Dec-03 19:00N 58°10' E 011°51'5 9.7
2017-Dec-03 18:30N 58°05' E 011°48'5 9.9
2017-Dec-03 17:59N 58°00' E 011°46'510.3
2017-Dec-03 17:30N 57°56' E 011°41'5 9.7
2017-Dec-03 17:00N 57°54' E 011°33'5 9.5
2017-Dec-03 16:30N 57°51' E 011°26'4 8.2
2017-Dec-03 16:00N 57°50' E 011°18'5 9.5
2017-Dec-03 15:30N 57°50' E 011°09'4 8.9
2017-Dec-03 15:00N 57°50' E 011°01'5 9.6
2017-Dec-03 14:30N 57°50' E 010°52'510.0
2017-Dec-03 14:00N 57°49' E 010°43'5 9.9
2017-Dec-03 13:30N 57°49' E 010°34'5 9.6
2017-Dec-03 13:00N 57°47' E 010°25'149 9.8
2017-Dec-02 21:53N 56°02' E 007°11'410.2
2017-Dec-02 21:29N 55°59' E 007°08'510.3
2017-Dec-02 21:00N 55°55' E 007°03'510.2
2017-Dec-02 20:29N 55°50' E 006°58'510.1
2017-Dec-02 20:00N 55°46' E 006°53'510.0
2017-Dec-02 19:29N 55°41' E 006°49'510.1
2017-Dec-02 19:00N 55°37' E 006°45'510.2
2017-Dec-02 18:30N 55°33' E 006°40'510.5
2017-Dec-02 17:59N 55°28' E 006°35'510.6
2017-Dec-02 17:30N 55°24' E 006°30'510.6
2017-Dec-02 16:59N 55°19' E 006°25'510.5
2017-Dec-02 16:30N 55°15' E 006°21'510.5
2017-Dec-02 16:00N 55°10' E 006°15'510.4
2017-Dec-02 15:29N 55°06' E 006°11'510.4
2017-Dec-02 14:59N 55°01' E 006°06'510.3
2017-Dec-02 14:30N 54°57' E 006°01'510.3
2017-Dec-02 13:59N 54°53' E 005°57'510.3
2017-Dec-02 13:29N 54°48' E 005°52'510.4
2017-Dec-02 13:00N 54°45' E 005°46'510.5
2017-Dec-02 12:30N 54°40' E 005°41'510.6
2017-Dec-02 11:59N 54°35' E 005°36'510.6
2017-Dec-02 11:29N 54°31' E 005°32'510.5
2017-Dec-02 11:00N 54°26' E 005°27'510.4
2017-Dec-02 10:30N 54°22' E 005°23'510.4
2017-Dec-02 09:59N 54°17' E 005°18'710.5
2017-Dec-02 09:18N 54°11' E 005°12'3710.6
2017-Dec-02 05:48N 53°36' E 004°51'311.0
2017-Dec-02 05:30N 53°33' E 004°49'511.0
2017-Dec-02 05:00N 53°28' E 004°45'611.6
2017-Dec-02 04:31N 53°23' E 004°42'912.1
2017-Dec-02 03:43N 53°14' E 004°35'312.2
2017-Dec-02 03:28N 53°11' E 004°32'612.1
2017-Dec-02 03:00N 53°07' E 004°27'611.8
2017-Dec-02 02:30N 53°02' E 004°22'611.9
2017-Dec-02 02:00N 52°56' E 004°18'611.8
2017-Dec-02 01:31N 52°51' E 004°15'611.6
2017-Dec-02 01:00N 52°46' E 004°09'611.5
2017-Dec-02 00:30N 52°41' E 004°04'611.4
2017-Dec-02 00:00N 52°36' E 003°59'510.8
2017-Dec-01 23:30N 52°32' E 003°55'510.5
2017-Dec-01 23:01N 52°26' E 003°54'510.0
2017-Dec-01 22:30N 52°21' E 003°52'5 9.7
2017-Dec-01 22:00N 52°17' E 003°53'5 9.6
2017-Dec-01 21:30N 52°12' E 003°54'5 9.2
2017-Dec-01 21:00N 52°07' E 003°55'4 8.6
2017-Dec-01 20:30N 52°04' E 003°51'3 6.5
2017-Dec-01 20:01N 52°02' E 003°56'510.7
2017-Dec-01 19:30N 51°59' E 004°04'611.8
2017-Dec-01 19:00N 51°56' E 004°12'611.3
2017-Dec-01 18:30N 51°53' E 004°19'4 8.0
2017-Dec-01 18:00N 51°51' E 004°24'5 9.2
2017-Dec-01 17:30N 51°50' E 004°32'4 8.1
2017-Dec-01 17:00N 51°48' E 004°37'1 1.4
2017-Dec-01 16:30N 51°48' E 004°38'0 0.0
2017-Dec-01 16:00N 51°48' E 004°38'0 0.0
2017-Dec-01 15:30N 51°48' E 004°38'  

Dump ship's entire track history